Time;durP1;ratioP1;P1;durP2;ratioP2;P2;SDS_P1;SDS_P2;PMS_P1;PMS_P2;Temp;Humidity;BMP_temperature;BMP_pressure;BME280_temperature;BME280_humidity;BME280_pressure;Samples;Min_cycle;Max_cycle;Signal;HPM_P1;HPM_P2
2021/12/26 00:01:45;;;;;;;81.38;35.08;;;;;;;;;;5137511;28;20596;-72
2021/12/26 00:04:15;;;;;;;87.78;36.42;;;;;;;;;;5138039;28;20480;-71
2021/12/26 00:06:45;;;;;;;99.68;38.00;;;;;;;;;;5137715;28;20542;-71
2021/12/26 00:09:12;;;;;;;95.00;37.30;;;;;;;;;;5137978;28;20207;-72
2021/12/26 00:11:40;;;;;;;100.80;39.10;;;;;;;;;;5137674;27;20231;-71
2021/12/26 00:14:08;;;;;;;93.43;38.15;;;;;;;;;;5141023;27;20212;-71
2021/12/26 00:16:36;;;;;;;87.90;35.42;;;;;;;;;;5144385;27;20210;-73
2021/12/26 00:19:03;;;;;;;106.00;40.20;;;;;;;;;;5144368;27;20562;-71
2021/12/26 00:21:31;;;;;;;121.15;39.75;;;;;;;;;;5143942;27;20270;-72
2021/12/26 00:24:00;;;;;;;81.25;37.50;;;;;;;;;;5143451;27;20227;-72
2021/12/26 00:26:30;;;;;;;109.18;40.70;;;;;;;;;;5142026;27;20281;-73
2021/12/26 00:28:58;;;;;;;115.47;41.45;;;;;;;;;;5141697;27;20584;-72
2021/12/26 00:31:32;;;;;;;121.15;43.03;;;;;;;;;;5141358;27;20196;-71
2021/12/26 00:34:00;;;;;;;125.22;45.10;;;;;;;;;;5141734;27;20204;-72
2021/12/26 00:36:30;;;;;;;122.05;42.60;;;;;;;;;;5141677;27;20208;-72
2021/12/26 00:38:58;;;;;;;101.65;38.78;;;;;;;;;;5141409;27;20208;-71
2021/12/26 00:41:27;;;;;;;115.78;38.15;;;;;;;;;;5141732;27;20288;-71
2021/12/26 00:43:55;;;;;;;129.07;43.53;;;;;;;;;;5141394;27;20192;-71
2021/12/26 00:46:22;;;;;;;129.20;43.58;;;;;;;;;;5141097;27;20212;-71
2021/12/26 00:48:50;;;;;;;126.68;42.67;;;;;;;;;;5141172;27;20310;-71
2021/12/26 00:51:18;;;;;;;133.75;42.88;;;;;;;;;;5141071;27;20199;-72
2021/12/26 00:53:46;;;;;;;130.55;43.42;;;;;;;;;;5141165;27;20230;-71
2021/12/26 00:56:15;;;;;;;137.02;45.58;;;;;;;;;;5140888;27;20481;-71
2021/12/26 00:58:44;;;;;;;130.45;42.03;;;;;;;;;;5140405;27;20249;-71
2021/12/26 01:01:12;;;;;;;136.38;43.65;;;;;;;;;;5140504;27;20243;-72
2021/12/26 01:03:42;;;;;;;128.38;43.28;;;;;;;;;;5140851;27;20270;-71
2021/12/26 01:06:10;;;;;;;133.32;43.83;;;;;;;;;;5140457;27;20204;-72
2021/12/26 01:08:41;;;;;;;133.60;43.97;;;;;;;;;;5140673;27;20201;-71
2021/12/26 01:11:17;;;;;;;134.55;43.75;;;;;;;;;;5140657;27;20240;-72
2021/12/26 01:13:47;;;;;;;137.07;43.92;;;;;;;;;;5140380;27;20260;-72
2021/12/26 01:16:15;;;;;;;129.73;42.67;;;;;;;;;;5140403;27;20239;-72
2021/12/26 01:18:44;;;;;;;137.65;43.60;;;;;;;;;;5140579;27;20201;-72
2021/12/26 01:21:18;;;;;;;129.57;43.92;;;;;;;;;;5140928;27;20271;-72
2021/12/26 01:23:48;;;;;;;129.98;43.03;;;;;;;;;;5140471;27;20277;-71
2021/12/26 01:26:16;;;;;;;124.15;41.35;;;;;;;;;;5141357;27;20200;-71
2021/12/26 01:28:43;;;;;;;126.10;41.97;;;;;;;;;;5142895;27;20204;-71
2021/12/26 01:31:18;;;;;;;127.80;42.78;;;;;;;;;;5142801;27;20436;-71
2021/12/26 01:33:46;;;;;;;130.73;41.00;;;;;;;;;;5142516;27;20495;-71
2021/12/26 01:36:14;;;;;;;133.75;43.00;;;;;;;;;;5142230;27;20222;-71
2021/12/26 01:38:41;;;;;;;144.45;45.05;;;;;;;;;;5141211;27;20192;-71
2021/12/26 01:41:10;;;;;;;152.23;46.00;;;;;;;;;;5139888;27;20224;-71
2021/12/26 01:43:39;;;;;;;141.73;45.05;;;;;;;;;;5140141;27;20216;-72
2021/12/26 01:46:07;;;;;;;148.38;45.80;;;;;;;;;;5140040;27;20293;-72
2021/12/26 01:48:36;;;;;;;149.85;44.85;;;;;;;;;;5139944;27;20274;-72
2021/12/26 01:51:04;;;;;;;144.82;44.80;;;;;;;;;;5139495;27;20472;-72
2021/12/26 01:53:37;;;;;;;144.38;44.78;;;;;;;;;;5139531;27;20260;-72
2021/12/26 01:56:05;;;;;;;139.98;43.65;;;;;;;;;;5139589;27;20265;-72
2021/12/26 01:58:35;;;;;;;150.55;46.22;;;;;;;;;;5139872;27;20226;-72
2021/12/26 02:01:03;;;;;;;139.73;43.60;;;;;;;;;;5139116;27;20216;-72
2021/12/26 02:03:30;;;;;;;150.80;45.53;;;;;;;;;;5139389;27;20238;-71
2021/12/26 02:06:00;;;;;;;140.38;44.15;;;;;;;;;;5140139;27;20200;-71
2021/12/26 02:08:28;;;;;;;137.10;43.15;;;;;;;;;;5139602;27;20200;-72
2021/12/26 02:10:59;;;;;;;136.55;43.50;;;;;;;;;;5139432;27;20193;-71
2021/12/26 02:13:27;;;;;;;143.77;44.80;;;;;;;;;;5139166;27;20228;-71
2021/12/26 02:15:55;;;;;;;138.55;43.25;;;;;;;;;;5139533;27;20584;-71
2021/12/26 02:18:22;;;;;;;137.48;43.80;;;;;;;;;;5139425;27;20219;-72
2021/12/26 02:21:10;;;;;;;136.60;43.38;;;;;;;;;;5139325;27;20224;-72
2021/12/26 02:23:44;;;;;;;134.52;42.97;;;;;;;;;;5139571;27;20207;-72
2021/12/26 02:28:57;;;;;;;137.60;42.88;;;;;;;;;;5138845;27;20188;-71
2021/12/26 02:31:26;;;;;;;144.73;43.97;;;;;;;;;;5140046;27;20196;-72
2021/12/26 02:33:54;;;;;;;142.48;44.85;;;;;;;;;;5138562;27;20215;-72
2021/12/26 02:36:23;;;;;;;140.18;43.33;;;;;;;;;;5139683;27;20281;-72
2021/12/26 02:38:50;;;;;;;139.25;43.72;;;;;;;;;;5138850;27;20466;-72
2021/12/26 02:41:18;;;;;;;135.70;42.22;;;;;;;;;;5138674;27;20684;-72
2021/12/26 02:43:46;;;;;;;147.48;44.20;;;;;;;;;;5139339;27;20257;-72
2021/12/26 02:46:31;;;;;;;140.55;44.80;;;;;;;;;;5138926;27;20304;-72
2021/12/26 02:48:59;;;;;;;129.68;43.30;;;;;;;;;;5138382;27;20533;-72
2021/12/26 02:51:28;;;;;;;131.43;41.92;;;;;;;;;;5139097;27;20196;-72
2021/12/26 02:53:56;;;;;;;140.40;43.25;;;;;;;;;;5138209;27;20287;-72
2021/12/26 02:56:24;;;;;;;131.48;41.70;;;;;;;;;;5139207;27;20201;-72
2021/12/26 02:58:54;;;;;;;135.43;42.95;;;;;;;;;;5140331;27;20269;-72
2021/12/26 03:01:23;;;;;;;138.52;41.97;;;;;;;;;;5141720;27;20235;-72
2021/12/26 03:03:51;;;;;;;134.52;43.08;;;;;;;;;;5141277;27;20200;-72
2021/12/26 03:06:25;;;;;;;130.88;41.63;;;;;;;;;;5139586;27;20302;-72
2021/12/26 03:08:55;;;;;;;129.23;41.00;;;;;;;;;;5137738;27;20239;-72
2021/12/26 03:11:23;;;;;;;141.82;43.85;;;;;;;;;;5138380;27;20196;-72
2021/12/26 03:13:51;;;;;;;139.30;43.22;;;;;;;;;;5138261;27;20612;-72
2021/12/26 03:16:18;;;;;;;135.73;42.75;;;;;;;;;;5138252;27;20466;-70
2021/12/26 03:18:46;;;;;;;143.57;43.13;;;;;;;;;;5138035;27;20208;-72
2021/12/26 03:21:14;;;;;;;142.70;43.00;;;;;;;;;;5138114;27;20228;-71
2021/12/26 03:23:41;;;;;;;138.30;42.45;;;;;;;;;;5138434;27;20585;-71
2021/12/26 03:26:10;;;;;;;135.63;41.92;;;;;;;;;;5138890;27;20279;-72
2021/12/26 03:28:38;;;;;;;127.43;41.15;;;;;;;;;;5137515;27;20200;-72
2021/12/26 03:31:06;;;;;;;142.63;44.80;;;;;;;;;;5138587;27;20200;-72
2021/12/26 03:33:34;;;;;;;132.75;42.03;;;;;;;;;;5138037;27;20282;-72
2021/12/26 03:36:01;;;;;;;134.38;43.10;;;;;;;;;;5136842;27;20204;-72
2021/12/26 03:38:36;;;;;;;138.38;43.53;;;;;;;;;;5137664;27;20303;-72
2021/12/26 03:41:03;;;;;;;130.07;42.53;;;;;;;;;;5137522;27;20683;-72
2021/12/26 03:43:33;;;;;;;131.73;42.30;;;;;;;;;;5137701;27;20606;-72
2021/12/26 03:46:00;;;;;;;144.65;44.08;;;;;;;;;;5137678;28;20208;-72
2021/12/26 03:48:28;;;;;;;123.82;40.58;;;;;;;;;;5137460;27;20200;-72
2021/12/26 03:50:58;;;;;;;137.75;42.90;;;;;;;;;;5137239;28;20200;-72
2021/12/26 03:53:25;;;;;;;120.85;39.72;;;;;;;;;;5137409;28;20212;-72
2021/12/26 03:55:53;;;;;;;120.75;39.72;;;;;;;;;;5137504;28;20608;-72
2021/12/26 03:58:21;;;;;;;126.63;42.60;;;;;;;;;;5137264;28;20201;-71
2021/12/26 04:00:51;;;;;;;123.07;40.92;;;;;;;;;;5137905;28;20287;-71
2021/12/26 04:03:18;;;;;;;113.60;38.47;;;;;;;;;;5137394;28;20252;-72
2021/12/26 04:05:46;;;;;;;119.30;39.88;;;;;;;;;;5137515;28;20210;-72
2021/12/26 04:08:14;;;;;;;117.28;39.40;;;;;;;;;;5138086;28;20246;-72
2021/12/26 04:10:41;;;;;;;118.47;39.92;;;;;;;;;;5137891;28;20196;-72
2021/12/26 04:13:09;;;;;;;123.28;40.40;;;;;;;;;;5137658;28;20539;-72
2021/12/26 04:15:37;;;;;;;129.15;41.35;;;;;;;;;;5137605;28;20226;-72
2021/12/26 04:18:06;;;;;;;117.28;39.45;;;;;;;;;;5137649;27;20208;-72
2021/12/26 04:20:33;;;;;;;122.43;40.33;;;;;;;;;;5137577;28;20278;-71
2021/12/26 04:23:01;;;;;;;126.95;41.63;;;;;;;;;;5137695;28;20220;-71
2021/12/26 04:25:29;;;;;;;121.80;39.90;;;;;;;;;;5137617;28;20619;-72
2021/12/26 04:27:56;;;;;;;132.23;41.28;;;;;;;;;;5136702;28;20200;-72
2021/12/26 04:30:25;;;;;;;126.68;41.70;;;;;;;;;;5137718;28;20291;-72
2021/12/26 04:32:52;;;;;;;125.75;40.35;;;;;;;;;;5137677;28;20366;-71
2021/12/26 04:35:22;;;;;;;126.95;42.75;;;;;;;;;;5137153;28;20265;-72
2021/12/26 04:37:49;;;;;;;129.15;41.40;;;;;;;;;;5137689;28;20606;-72
2021/12/26 04:40:17;;;;;;;126.38;40.25;;;;;;;;;;5137127;27;20211;-72
2021/12/26 04:42:46;;;;;;;126.15;40.17;;;;;;;;;;5137475;28;20247;-72
2021/12/26 04:45:14;;;;;;;124.30;41.05;;;;;;;;;;5137207;28;20200;-72
2021/12/26 04:47:43;;;;;;;129.18;41.35;;;;;;;;;;5137168;28;20252;-72
2021/12/26 04:50:12;;;;;;;131.85;42.65;;;;;;;;;;5137037;28;20200;-73
2021/12/26 04:52:43;;;;;;;133.00;42.08;;;;;;;;;;5137562;28;20199;-73
2021/12/26 04:55:14;;;;;;;138.52;43.47;;;;;;;;;;5136684;28;20208;-72
2021/12/26 04:57:42;;;;;;;129.73;42.20;;;;;;;;;;5136370;28;20265;-72
2021/12/26 05:00:11;;;;;;;128.88;41.53;;;;;;;;;;5137969;27;20580;-72
2021/12/26 05:02:39;;;;;;;133.15;41.60;;;;;;;;;;5140685;27;20684;-72
2021/12/26 05:05:08;;;;;;;129.18;41.97;;;;;;;;;;5141188;27;20211;-72
2021/12/26 05:07:36;;;;;;;136.52;42.40;;;;;;;;;;5140782;27;20200;-72
2021/12/26 05:10:05;;;;;;;133.70;42.65;;;;;;;;;;5141323;27;20205;-73
2021/12/26 05:12:33;;;;;;;131.50;41.38;;;;;;;;;;5141008;27;20218;-72
2021/12/26 05:15:03;;;;;;;132.85;42.85;;;;;;;;;;5140588;27;20212;-72
2021/12/26 05:17:32;;;;;;;127.20;41.90;;;;;;;;;;5140779;27;20461;-72
2021/12/26 05:20:00;;;;;;;130.13;42.33;;;;;;;;;;5140413;27;20208;-72
2021/12/26 05:22:27;;;;;;;118.40;38.75;;;;;;;;;;5140094;27;20620;-72
2021/12/26 05:24:55;;;;;;;104.22;37.22;;;;;;;;;;5140677;27;20199;-72
2021/12/26 05:27:24;;;;;;;111.85;38.67;;;;;;;;;;5140031;27;20265;-72
2021/12/26 05:29:52;;;;;;;122.50;41.38;;;;;;;;;;5141610;27;20227;-73
2021/12/26 05:32:20;;;;;;;126.78;41.38;;;;;;;;;;5140954;27;20196;-72
2021/12/26 05:34:48;;;;;;;125.70;41.05;;;;;;;;;;5140368;27;20210;-72
2021/12/26 05:37:15;;;;;;;116.85;38.95;;;;;;;;;;5140449;27;20245;-72
2021/12/26 05:39:43;;;;;;;113.03;39.95;;;;;;;;;;5139808;27;20249;-72
2021/12/26 05:42:15;;;;;;;121.43;39.55;;;;;;;;;;5139860;27;20220;-72
2021/12/26 05:44:44;;;;;;;127.43;42.30;;;;;;;;;;5140040;27;20254;-72
2021/12/26 05:47:12;;;;;;;117.03;39.15;;;;;;;;;;5139381;27;20192;-72
2021/12/26 05:49:40;;;;;;;126.95;40.70;;;;;;;;;;5139777;27;20196;-72
2021/12/26 05:52:09;;;;;;;132.57;42.95;;;;;;;;;;5139737;27;20595;-71
2021/12/26 05:54:37;;;;;;;123.40;40.47;;;;;;;;;;5139711;27;20551;-72
2021/12/26 05:57:05;;;;;;;133.82;43.25;;;;;;;;;;5139614;27;20593;-71
2021/12/26 05:59:33;;;;;;;134.50;42.50;;;;;;;;;;5140033;27;20661;-72
2021/12/26 06:02:02;;;;;;;132.05;43.17;;;;;;;;;;5139431;27;20484;-72
2021/12/26 06:04:30;;;;;;;131.23;43.08;;;;;;;;;;5140198;27;20638;-72
2021/12/26 06:06:58;;;;;;;125.75;41.05;;;;;;;;;;5139924;27;20211;-72
2021/12/26 06:09:26;;;;;;;122.43;40.22;;;;;;;;;;5139450;27;20196;-71
2021/12/26 06:11:54;;;;;;;122.82;40.38;;;;;;;;;;5139352;27;20200;-72
2021/12/26 06:14:22;;;;;;;134.57;43.05;;;;;;;;;;5139554;27;20200;-72
2021/12/26 06:16:49;;;;;;;129.48;41.17;;;;;;;;;;5139510;27;20478;-72
2021/12/26 06:19:19;;;;;;;137.40;41.90;;;;;;;;;;5139073;27;20628;-71
2021/12/26 06:21:46;;;;;;;129.77;40.88;;;;;;;;;;5139813;27;20200;-71
2021/12/26 06:24:14;;;;;;;136.95;42.03;;;;;;;;;;5138698;27;20640;-72
2021/12/26 06:26:42;;;;;;;136.30;42.33;;;;;;;;;;5139415;27;20294;-72
2021/12/26 06:29:09;;;;;;;127.05;41.85;;;;;;;;;;5139428;27;20200;-72
2021/12/26 06:31:37;;;;;;;141.13;42.55;;;;;;;;;;5138574;27;20201;-72
2021/12/26 06:34:05;;;;;;;138.82;43.20;;;;;;;;;;5139213;27;20498;-71
2021/12/26 06:36:34;;;;;;;133.35;43.03;;;;;;;;;;5137959;27;20200;-71
2021/12/26 06:39:01;;;;;;;134.73;42.60;;;;;;;;;;5139341;27;20475;-72
2021/12/26 06:41:29;;;;;;;137.07;42.25;;;;;;;;;;5138564;27;20483;-72
2021/12/26 06:43:56;;;;;;;129.05;41.55;;;;;;;;;;5139415;27;20288;-71
2021/12/26 06:46:25;;;;;;;129.20;41.38;;;;;;;;;;5138380;27;20230;-71
2021/12/26 06:48:52;;;;;;;128.98;41.17;;;;;;;;;;5139149;27;20200;-71
2021/12/26 06:51:20;;;;;;;138.05;42.92;;;;;;;;;;5138855;27;20208;-72
2021/12/26 06:53:49;;;;;;;133.00;42.92;;;;;;;;;;5138816;27;20204;-71
2021/12/26 06:56:16;;;;;;;147.95;44.88;;;;;;;;;;5138492;27;20265;-71
2021/12/26 06:58:44;;;;;;;144.00;43.97;;;;;;;;;;5137717;27;20265;-71
2021/12/26 07:01:12;;;;;;;138.52;42.75;;;;;;;;;;5138429;27;20260;-71
2021/12/26 07:03:39;;;;;;;147.02;45.47;;;;;;;;;;5138329;27;20281;-71
2021/12/26 07:06:07;;;;;;;145.50;43.60;;;;;;;;;;5138802;27;20199;-71
2021/12/26 07:08:35;;;;;;;156.00;46.72;;;;;;;;;;5138498;27;20212;-71
2021/12/26 07:11:04;;;;;;;146.40;45.20;;;;;;;;;;5138415;27;20202;-72
2021/12/26 07:13:31;;;;;;;144.00;42.97;;;;;;;;;;5138780;27;20284;-72
2021/12/26 07:15:59;;;;;;;142.90;43.53;;;;;;;;;;5138836;27;20200;-72
2021/12/26 07:18:27;;;;;;;146.50;44.67;;;;;;;;;;5138631;27;20260;-72
2021/12/26 07:20:55;;;;;;;137.80;42.85;;;;;;;;;;5138942;27;20204;-72
2021/12/26 07:23:23;;;;;;;145.90;43.75;;;;;;;;;;5131013;27;20682;-72
2021/12/26 07:25:50;;;;;;;143.20;43.70;;;;;;;;;;5117405;28;20216;-72
2021/12/26 07:28:19;;;;;;;136.52;42.42;;;;;;;;;;5116832;28;20227;-72
2021/12/26 07:30:47;;;;;;;143.15;43.50;;;;;;;;;;5117418;28;20193;-72
2021/12/26 07:33:14;;;;;;;150.02;44.20;;;;;;;;;;5117515;28;20201;-70
2021/12/26 07:35:42;;;;;;;145.13;43.72;;;;;;;;;;5125311;27;20782;-72
2021/12/26 07:38:09;;;;;;;141.25;43.30;;;;;;;;;;5137336;27;20199;-72
2021/12/26 07:40:37;;;;;;;141.88;44.15;;;;;;;;;;5138583;27;20339;-72
2021/12/26 07:43:04;;;;;;;153.55;45.90;;;;;;;;;;5139102;27;20748;-72
2021/12/26 07:45:34;;;;;;;152.32;45.38;;;;;;;;;;5139165;27;20585;-71
2021/12/26 07:48:01;;;;;;;156.60;47.10;;;;;;;;;;5138322;27;20217;-72
2021/12/26 07:50:29;;;;;;;148.00;44.42;;;;;;;;;;5136441;28;20265;-72
2021/12/26 07:53:02;;;;;;;155.68;46.70;;;;;;;;;;5138158;28;20214;-73
2021/12/26 07:55:30;;;;;;;147.75;45.38;;;;;;;;;;5136705;28;20203;-73
2021/12/26 07:57:58;;;;;;;141.48;42.50;;;;;;;;;;5131911;28;20449;-73
2021/12/26 08:00:27;;;;;;;153.73;44.80;;;;;;;;;;5122671;28;20274;-72
2021/12/26 08:02:57;;;;;;;142.73;43.95;;;;;;;;;;5124100;28;20230;-72
2021/12/26 08:05:25;;;;;;;147.32;44.20;;;;;;;;;;5120880;28;20207;-72
2021/12/26 08:07:53;;;;;;;149.57;45.83;;;;;;;;;;5116434;28;20209;-72
2021/12/26 08:10:23;;;;;;;144.73;44.42;;;;;;;;;;5117119;28;20201;-72
2021/12/26 08:12:51;;;;;;;147.45;43.85;;;;;;;;;;5116917;28;20313;-73
2021/12/26 08:15:19;;;;;;;138.98;43.05;;;;;;;;;;5121967;28;20283;-72
2021/12/26 08:17:47;;;;;;;141.43;43.80;;;;;;;;;;5132076;28;20283;-72
2021/12/26 08:20:20;;;;;;;137.27;43.75;;;;;;;;;;5137382;28;20283;-73
2021/12/26 08:22:48;;;;;;;151.35;45.40;;;;;;;;;;5133164;28;20631;-72
2021/12/26 08:25:19;;;;;;;144.60;43.85;;;;;;;;;;5145410;27;20555;-73
2021/12/26 08:27:47;;;;;;;142.10;42.17;;;;;;;;;;5147674;27;20365;-72
2021/12/26 08:30:15;;;;;;;135.27;41.85;;;;;;;;;;5127845;28;20285;-72
2021/12/26 08:32:50;;;;;;;151.90;46.80;;;;;;;;;;5134238;27;20192;-72
2021/12/26 08:35:23;;;;;;;144.90;45.78;;;;;;;;;;5120211;28;20212;-72
2021/12/26 08:37:50;;;;;;;141.48;43.20;;;;;;;;;;5121214;27;20231;-73
2021/12/26 08:40:18;;;;;;;126.25;43.33;;;;;;;;;;5125666;27;20204;-72
2021/12/26 08:42:45;;;;;;;142.75;45.00;;;;;;;;;;5140009;27;20228;-72
2021/12/26 08:45:13;;;;;;;148.43;46.85;;;;;;;;;;5141651;27;20200;-72
2021/12/26 08:47:44;;;;;;;141.50;43.20;;;;;;;;;;5141220;27;20207;-72
2021/12/26 08:50:13;;;;;;;157.70;47.80;;;;;;;;;;5139831;27;20595;-72
2021/12/26 08:52:44;;;;;;;145.77;44.10;;;;;;;;;;5122139;27;20308;-72
2021/12/26 08:55:12;;;;;;;156.05;45.50;;;;;;;;;;5125464;27;20482;-72
2021/12/26 08:57:41;;;;;;;143.27;45.33;;;;;;;;;;5140409;27;20197;-72
2021/12/26 09:00:12;;;;;;;143.85;44.03;;;;;;;;;;5140595;27;20211;-73
2021/12/26 09:02:40;;;;;;;140.73;43.50;;;;;;;;;;5140186;27;20204;-73
2021/12/26 09:05:14;;;;;;;137.68;43.97;;;;;;;;;;5129073;27;20272;-73
2021/12/26 09:07:44;;;;;;;136.20;42.85;;;;;;;;;;5121814;27;20196;-73
2021/12/26 09:10:12;;;;;;;130.40;41.70;;;;;;;;;;5140500;27;20745;-72
2021/12/26 09:12:40;;;;;;;137.27;44.15;;;;;;;;;;5141154;27;20619;-73
2021/12/26 09:15:09;;;;;;;128.00;42.78;;;;;;;;;;5126193;27;20197;-73
2021/12/26 09:17:37;;;;;;;129.43;41.47;;;;;;;;;;5118991;28;20525;-74
2021/12/26 09:20:05;;;;;;;131.07;41.63;;;;;;;;;;5119008;28;20205;-73
2021/12/26 09:22:33;;;;;;;136.52;44.58;;;;;;;;;;5117902;28;20270;-73
2021/12/26 09:25:03;;;;;;;132.60;44.70;;;;;;;;;;5119116;28;20221;-73
2021/12/26 09:27:31;;;;;;;137.20;43.13;;;;;;;;;;5118839;28;20197;-73
2021/12/26 09:30:01;;;;;;;144.63;44.67;;;;;;;;;;5120321;27;20253;-71
2021/12/26 09:32:28;;;;;;;142.95;43.65;;;;;;;;;;5119469;28;20201;-72
2021/12/26 09:34:56;;;;;;;135.57;42.65;;;;;;;;;;5130861;27;20207;-71
2021/12/26 09:37:24;;;;;;;140.75;44.30;;;;;;;;;;5132019;27;20201;-72
2021/12/26 09:39:53;;;;;;;142.73;45.85;;;;;;;;;;5119908;28;20581;-72
2021/12/26 09:42:24;;;;;;;116.97;40.38;;;;;;;;;;5120588;28;20223;-72
2021/12/26 09:44:52;;;;;;;97.63;38.75;;;;;;;;;;5121875;28;20235;-72
2021/12/26 09:47:20;;;;;;;104.43;37.80;;;;;;;;;;5136036;27;20607;-72
2021/12/26 09:49:48;;;;;;;115.00;40.88;;;;;;;;;;5139350;27;20207;-71
2021/12/26 09:52:16;;;;;;;103.05;39.95;;;;;;;;;;5139041;27;20233;-71
2021/12/26 09:54:45;;;;;;;107.80;41.33;;;;;;;;;;5138899;27;20188;-71
2021/12/26 09:57:13;;;;;;;139.05;45.15;;;;;;;;;;5131334;27;20204;-71
2021/12/26 09:59:43;;;;;;;146.30;45.67;;;;;;;;;;5120441;28;20584;-72
2021/12/26 10:02:13;;;;;;;137.52;44.75;;;;;;;;;;5126859;27;20193;-72
2021/12/26 10:04:42;;;;;;;129.93;42.75;;;;;;;;;;5140154;27;20314;-72
2021/12/26 10:07:13;;;;;;;142.07;44.88;;;;;;;;;;5140690;27;20207;-71
2021/12/26 10:09:43;;;;;;;124.50;45.55;;;;;;;;;;5139567;27;20219;-71
2021/12/26 10:12:12;;;;;;;111.97;43.50;;;;;;;;;;5139188;27;20208;-71
2021/12/26 10:14:41;;;;;;;98.80;39.33;;;;;;;;;;5139919;27;20203;-69
2021/12/26 10:17:13;;;;;;;132.65;45.38;;;;;;;;;;5140191;27;20468;-71
2021/12/26 10:19:41;;;;;;;105.40;40.63;;;;;;;;;;5139404;27;20435;-71
2021/12/26 10:22:10;;;;;;;128.43;45.28;;;;;;;;;;5139968;27;20207;-71
2021/12/26 10:27:23;;;;;;;122.68;46.13;;;;;;;;;;5131817;27;20210;-71
2021/12/26 10:29:51;;;;;;;104.90;40.13;;;;;;;;;;5138620;27;20204;-71
2021/12/26 10:32:21;;;;;;;125.53;46.38;;;;;;;;;;5120291;28;20201;-72
2021/12/26 10:34:50;;;;;;;118.30;41.80;;;;;;;;;;5120459;28;20204;-71
2021/12/26 10:37:20;;;;;;;129.88;44.47;;;;;;;;;;5120626;28;20201;-71
2021/12/26 10:39:49;;;;;;;134.80;48.92;;;;;;;;;;5124977;27;20204;-72
2021/12/26 10:42:19;;;;;;;127.55;47.63;;;;;;;;;;5130035;27;20191;-71
2021/12/26 10:44:47;;;;;;;137.15;44.78;;;;;;;;;;5140356;27;20226;-71
2021/12/26 10:47:16;;;;;;;131.32;48.63;;;;;;;;;;5140934;27;20192;-70
2021/12/26 10:49:49;;;;;;;132.18;46.90;;;;;;;;;;5138081;27;20200;-71
2021/12/26 10:52:19;;;;;;;136.52;49.47;;;;;;;;;;5120079;28;20193;-71
2021/12/26 10:54:51;;;;;;;153.90;49.53;;;;;;;;;;5131353;27;20200;-71
2021/12/26 10:57:22;;;;;;;117.85;42.55;;;;;;;;;;5141453;27;20210;-71
2021/12/26 11:00:01;;;;;;;151.70;47.80;;;;;;;;;;5140222;27;20199;-71
2021/12/26 11:02:34;;;;;;;140.43;46.38;;;;;;;;;;5140721;27;20264;-72
2021/12/26 11:05:28;;;;;;;164.98;50.15;;;;;;;;;;5128994;27;20226;-73
2021/12/26 11:08:00;;;;;;;147.38;47.10;;;;;;;;;;5137755;27;20212;-71
2021/12/26 11:10:29;;;;;;;127.40;43.65;;;;;;;;;;5138170;27;20193;-72
2021/12/26 11:13:00;;;;;;;158.60;49.17;;;;;;;;;;5138246;27;20204;-72
2021/12/26 11:15:31;;;;;;;159.70;49.90;;;;;;;;;;5137653;27;20589;-72
2021/12/26 11:18:00;;;;;;;161.35;49.38;;;;;;;;;;5137439;27;20200;-71
2021/12/26 11:20:34;;;;;;;159.52;50.72;;;;;;;;;;5136504;27;20249;-72
2021/12/26 11:23:09;;;;;;;170.05;52.55;;;;;;;;;;5136243;27;20257;-71
2021/12/26 11:25:38;;;;;;;158.13;51.40;;;;;;;;;;5136442;27;20223;-72
2021/12/26 11:28:07;;;;;;;131.02;45.90;;;;;;;;;;5137813;27;20568;-71
2021/12/26 11:30:34;;;;;;;147.82;46.33;;;;;;;;;;5138169;27;20204;-71
2021/12/26 11:33:05;;;;;;;145.35;47.13;;;;;;;;;;5137886;27;20222;-71
2021/12/26 11:35:34;;;;;;;142.63;46.63;;;;;;;;;;5136839;27;20219;-71
2021/12/26 11:38:06;;;;;;;148.93;48.22;;;;;;;;;;5137298;27;20207;-70
2021/12/26 11:40:34;;;;;;;147.70;47.13;;;;;;;;;;5136541;27;20491;-71
2021/12/26 11:43:10;;;;;;;125.57;44.85;;;;;;;;;;5136182;27;20218;-71
2021/12/26 11:45:42;;;;;;;134.75;45.50;;;;;;;;;;5137549;27;20613;-72
2021/12/26 11:48:44;;;;;;;91.18;38.75;;;;;;;;;;5137384;28;20243;-71
2021/12/26 11:51:29;;;;;;;150.55;50.17;;;;;;;;;;5053865;28;20213;-71
2021/12/26 11:54:14;;;;;;;147.43;47.47;;;;;;;;;;5143447;27;20198;-72
2021/12/26 11:56:47;;;;;;;146.15;48.92;;;;;;;;;;5157851;27;20354;-72
2021/12/26 11:59:21;;;;;;;168.27;58.47;;;;;;;;;;5157381;27;20467;-71
2021/12/26 12:01:49;;;;;;;169.15;51.10;;;;;;;;;;5158413;27;20200;-71
2021/12/26 12:04:19;;;;;;;180.45;53.70;;;;;;;;;;5153654;27;20241;-71
2021/12/26 12:06:53;;;;;;;190.68;55.10;;;;;;;;;;5117228;28;20197;-70
2021/12/26 12:09:30;;;;;;;188.60;54.38;;;;;;;;;;5117542;28;20576;-71
2021/12/26 12:12:02;;;;;;;186.98;54.78;;;;;;;;;;5120881;28;20212;-72
2021/12/26 12:14:44;;;;;;;183.77;53.95;;;;;;;;;;5126123;27;20188;-70
2021/12/26 12:17:15;;;;;;;189.63;52.60;;;;;;;;;;5140307;27;20582;-70
2021/12/26 12:19:58;;;;;;;221.52;55.95;;;;;;;;;;5139652;27;20200;-71
2021/12/26 12:22:26;;;;;;;263.77;63.83;;;;;;;;;;5140544;27;20200;-71
2021/12/26 12:24:56;;;;;;;274.15;63.60;;;;;;;;;;5140503;27;20638;-71
2021/12/26 12:27:27;;;;;;;241.85;59.22;;;;;;;;;;5140354;27;20248;-72
2021/12/26 12:29:54;;;;;;;239.00;60.35;;;;;;;;;;5140397;27;20452;-71
2021/12/26 12:32:26;;;;;;;239.00;59.95;;;;;;;;;;5140478;27;20548;-71
2021/12/26 12:34:55;;;;;;;229.27;57.72;;;;;;;;;;5141177;27;20204;-72
2021/12/26 12:37:30;;;;;;;234.82;59.80;;;;;;;;;;5140693;27;20196;-71
2021/12/26 12:40:09;;;;;;;222.13;58.15;;;;;;;;;;5140171;27;20215;-71
2021/12/26 12:42:37;;;;;;;224.38;58.17;;;;;;;;;;5140186;27;20277;-72
2021/12/26 12:45:06;;;;;;;200.68;57.88;;;;;;;;;;5139611;27;20248;-71
2021/12/26 12:47:34;;;;;;;234.00;60.15;;;;;;;;;;5141486;27;20204;-71
2021/12/26 12:50:03;;;;;;;206.73;58.67;;;;;;;;;;5141724;27;20200;-72
2021/12/26 12:52:41;;;;;;;201.25;54.35;;;;;;;;;;5141508;27;20192;-72
2021/12/26 12:55:11;;;;;;;194.70;57.00;;;;;;;;;;5139518;27;20471;-72
2021/12/26 12:57:40;;;;;;;196.10;55.88;;;;;;;;;;5141100;27;20197;-72
2021/12/26 13:00:30;;;;;;;187.50;54.10;;;;;;;;;;5140963;27;20200;-72
2021/12/26 13:03:03;;;;;;;195.32;56.30;;;;;;;;;;5140144;27;20200;-72
2021/12/26 13:05:32;;;;;;;191.52;54.13;;;;;;;;;;5139503;27;20220;-72
2021/12/26 13:08:00;;;;;;;221.70;59.97;;;;;;;;;;5140225;27;20212;-72
2021/12/26 13:10:32;;;;;;;217.60;57.55;;;;;;;;;;5140326;27;20925;-72
2021/12/26 13:13:14;;;;;;;202.73;55.22;;;;;;;;;;5141279;27;20608;-72
2021/12/26 13:16:09;;;;;;;191.75;57.50;;;;;;;;;;5141234;27;20204;-73
2021/12/26 13:18:39;;;;;;;172.25;52.33;;;;;;;;;;5139420;27;20338;-73
2021/12/26 13:21:08;;;;;;;170.88;50.70;;;;;;;;;;5139326;27;20204;-72
2021/12/26 13:23:37;;;;;;;180.75;54.42;;;;;;;;;;5139331;27;20303;-72
2021/12/26 13:26:08;;;;;;;179.75;52.08;;;;;;;;;;5140088;27;20277;-72
2021/12/26 13:28:38;;;;;;;182.35;52.13;;;;;;;;;;5140164;27;20495;-72
2021/12/26 13:31:11;;;;;;;192.45;53.45;;;;;;;;;;5140721;27;20268;-72
2021/12/26 13:33:40;;;;;;;182.57;52.90;;;;;;;;;;5140138;27;20472;-72
2021/12/26 13:36:08;;;;;;;194.70;58.13;;;;;;;;;;5140205;27;20201;-72
2021/12/26 13:38:39;;;;;;;192.75;56.00;;;;;;;;;;5138978;27;20303;-71
2021/12/26 13:41:08;;;;;;;198.00;55.05;;;;;;;;;;5138997;27;20204;-73
2021/12/26 13:43:38;;;;;;;182.38;55.10;;;;;;;;;;5139506;27;20226;-72
2021/12/26 13:46:10;;;;;;;202.57;58.45;;;;;;;;;;5139119;27;20521;-72
2021/12/26 13:48:42;;;;;;;200.77;57.33;;;;;;;;;;5126647;27;20275;-71
2021/12/26 13:51:26;;;;;;;199.32;54.95;;;;;;;;;;5136610;27;20192;-72
2021/12/26 13:53:57;;;;;;;257.58;66.32;;;;;;;;;;5140389;27;20235;-72
2021/12/26 13:56:28;;;;;;;165.73;51.30;;;;;;;;;;5139000;27;20326;-71
2021/12/26 13:58:57;;;;;;;147.48;47.33;;;;;;;;;;5139472;27;20196;-72
2021/12/26 14:01:25;;;;;;;153.82;52.45;;;;;;;;;;5138354;27;20269;-72
2021/12/26 14:03:53;;;;;;;153.77;52.33;;;;;;;;;;5139051;27;20264;-71
2021/12/26 14:06:31;;;;;;;148.38;49.67;;;;;;;;;;5137212;27;20208;-72
2021/12/26 14:08:59;;;;;;;146.27;48.58;;;;;;;;;;5134480;27;20216;-72
2021/12/26 14:11:39;;;;;;;145.43;51.95;;;;;;;;;;5138996;27;20611;-72
2021/12/26 14:14:08;;;;;;;148.48;49.08;;;;;;;;;;5138296;27;20591;-71
2021/12/26 14:16:41;;;;;;;145.80;48.20;;;;;;;;;;5138732;27;20295;-71
2021/12/26 14:19:14;;;;;;;143.23;47.97;;;;;;;;;;5138403;27;20204;-72
2021/12/26 14:21:47;;;;;;;142.95;46.95;;;;;;;;;;5138103;27;20297;-72
2021/12/26 14:24:21;;;;;;;143.00;48.65;;;;;;;;;;5137538;27;20235;-70